sensor_id;sensor_type;location;lat;lon;timestamp;P1;durP1;ratioP1;P2;durP2;ratioP2
37297;SDS011;30517;51.932;4.278;2023-05-10T00:00:01;8.68;;;4.53;;
37297;SDS011;30517;51.932;4.278;2023-05-10T00:02:42;7.65;;;4.43;;
37297;SDS011;30517;51.932;4.278;2023-05-10T00:05:23;7.63;;;4.85;;
37297;SDS011;30517;51.932;4.278;2023-05-10T00:08:04;7.40;;;4.43;;
37297;SDS011;30517;51.932;4.278;2023-05-10T00:10:45;7.53;;;4.38;;
37297;SDS011;30517;51.932;4.278;2023-05-10T00:13:26;7.00;;;4.35;;
37297;SDS011;30517;51.932;4.278;2023-05-10T00:16:07;7.05;;;4.15;;
37297;SDS011;30517;51.932;4.278;2023-05-10T00:18:48;7.45;;;4.72;;
37297;SDS011;30517;51.932;4.278;2023-05-10T00:21:28;7.28;;;4.35;;
37297;SDS011;30517;51.932;4.278;2023-05-10T00:24:09;7.15;;;4.55;;
37297;SDS011;30517;51.932;4.278;2023-05-10T00:26:50;8.32;;;4.93;;
37297;SDS011;30517;51.932;4.278;2023-05-10T00:29:31;6.53;;;4.15;;
37297;SDS011;30517;51.932;4.278;2023-05-10T00:32:13;7.85;;;4.90;;
37297;SDS011;30517;51.932;4.278;2023-05-10T00:34:53;7.38;;;4.88;;
37297;SDS011;30517;51.932;4.278;2023-05-10T00:37:34;9.57;;;4.53;;
37297;SDS011;30517;51.932;4.278;2023-05-10T00:40:15;8.70;;;4.63;;
37297;SDS011;30517;51.932;4.278;2023-05-10T00:42:57;7.65;;;4.60;;
37297;SDS011;30517;51.932;4.278;2023-05-10T00:45:39;7.18;;;4.47;;
37297;SDS011;30517;51.932;4.278;2023-05-10T00:48:21;7.03;;;4.30;;
37297;SDS011;30517;51.932;4.278;2023-05-10T00:51:02;8.15;;;4.38;;
37297;SDS011;30517;51.932;4.278;2023-05-10T00:53:44;9.00;;;5.43;;
37297;SDS011;30517;51.932;4.278;2023-05-10T00:56:26;6.93;;;4.72;;
37297;SDS011;30517;51.932;4.278;2023-05-10T00:59:09;8.10;;;5.07;;
37297;SDS011;30517;51.932;4.278;2023-05-10T01:01:50;7.85;;;4.75;;
37297;SDS011;30517;51.932;4.278;2023-05-10T01:04:31;8.95;;;5.38;;
37297;SDS011;30517;51.932;4.278;2023-05-10T01:07:12;7.82;;;5.13;;
37297;SDS011;30517;51.932;4.278;2023-05-10T01:09:53;8.60;;;4.97;;
37297;SDS011;30517;51.932;4.278;2023-05-10T01:12:35;8.13;;;4.88;;
37297;SDS011;30517;51.932;4.278;2023-05-10T01:15:18;8.68;;;5.10;;
37297;SDS011;30517;51.932;4.278;2023-05-10T01:18:01;8.40;;;4.60;;
37297;SDS011;30517;51.932;4.278;2023-05-10T01:20:43;7.30;;;4.47;;
37297;SDS011;30517;51.932;4.278;2023-05-10T01:26:49;8.27;;;5.05;;
37297;SDS011;30517;51.932;4.278;2023-05-10T01:32:58;7.70;;;5.07;;
37297;SDS011;30517;51.932;4.278;2023-05-10T01:38:33;9.25;;;5.43;;
37297;SDS011;30517;51.932;4.278;2023-05-10T01:48:01;10.27;;;5.45;;
37297;SDS011;30517;51.932;4.278;2023-05-10T01:50:47;8.73;;;4.80;;
37297;SDS011;30517;51.932;4.278;2023-05-10T01:53:28;8.75;;;5.35;;
37297;SDS011;30517;51.932;4.278;2023-05-10T01:56:11;8.83;;;5.57;;
37297;SDS011;30517;51.932;4.278;2023-05-10T01:58:54;9.02;;;4.97;;
37297;SDS011;30517;51.932;4.278;2023-05-10T02:01:36;8.60;;;5.28;;
37297;SDS011;30517;51.932;4.278;2023-05-10T02:04:18;10.05;;;5.68;;
37297;SDS011;30517;51.932;4.278;2023-05-10T02:07:02;10.23;;;5.70;;
37297;SDS011;30517;51.932;4.278;2023-05-10T02:09:44;8.18;;;5.38;;
37297;SDS011;30517;51.932;4.278;2023-05-10T02:12:29;9.30;;;5.15;;
37297;SDS011;30517;51.932;4.278;2023-05-10T02:15:12;8.65;;;5.45;;
37297;SDS011;30517;51.932;4.278;2023-05-10T02:17:59;8.38;;;5.10;;
37297;SDS011;30517;51.932;4.278;2023-05-10T02:20:43;7.83;;;4.63;;
37297;SDS011;30517;51.932;4.278;2023-05-10T02:23:26;9.15;;;5.15;;
37297;SDS011;30517;51.932;4.278;2023-05-10T02:26:09;9.03;;;5.47;;
37297;SDS011;30517;51.932;4.278;2023-05-10T02:28:52;8.05;;;4.65;;
37297;SDS011;30517;51.932;4.278;2023-05-10T02:31:34;9.57;;;4.75;;
37297;SDS011;30517;51.932;4.278;2023-05-10T02:34:16;7.72;;;4.47;;
37297;SDS011;30517;51.932;4.278;2023-05-10T02:36:57;7.95;;;4.55;;
37297;SDS011;30517;51.932;4.278;2023-05-10T02:39:40;9.77;;;5.93;;
37297;SDS011;30517;51.932;4.278;2023-05-10T02:42:25;8.52;;;5.25;;
37297;SDS011;30517;51.932;4.278;2023-05-10T02:45:10;8.30;;;5.18;;
37297;SDS011;30517;51.932;4.278;2023-05-10T02:47:53;8.07;;;5.05;;
37297;SDS011;30517;51.932;4.278;2023-05-10T02:50:35;9.63;;;4.45;;
37297;SDS011;30517;51.932;4.278;2023-05-10T02:53:30;9.88;;;5.40;;
37297;SDS011;30517;51.932;4.278;2023-05-10T02:56:14;7.72;;;4.88;;
37297;SDS011;30517;51.932;4.278;2023-05-10T02:59:04;9.27;;;5.50;;
37297;SDS011;30517;51.932;4.278;2023-05-10T03:01:45;9.80;;;5.25;;
37297;SDS011;30517;51.932;4.278;2023-05-10T03:04:26;7.78;;;4.85;;
37297;SDS011;30517;51.932;4.278;2023-05-10T03:07:07;8.27;;;4.75;;
37297;SDS011;30517;51.932;4.278;2023-05-10T03:09:48;9.18;;;5.10;;
37297;SDS011;30517;51.932;4.278;2023-05-10T03:15:36;8.57;;;5.38;;
37297;SDS011;30517;51.932;4.278;2023-05-10T03:18:23;9.67;;;5.83;;
37297;SDS011;30517;51.932;4.278;2023-05-10T03:21:11;11.55;;;5.30;;
37297;SDS011;30517;51.932;4.278;2023-05-10T03:23:58;9.57;;;5.18;;
37297;SDS011;30517;51.932;4.278;2023-05-10T03:26:46;9.95;;;6.22;;
37297;SDS011;30517;51.932;4.278;2023-05-10T03:29:27;9.50;;;6.38;;
37297;SDS011;30517;51.932;4.278;2023-05-10T03:32:10;11.57;;;6.10;;
37297;SDS011;30517;51.932;4.278;2023-05-10T03:34:51;9.88;;;5.90;;
37297;SDS011;30517;51.932;4.278;2023-05-10T03:37:32;8.90;;;5.85;;
37297;SDS011;30517;51.932;4.278;2023-05-10T03:40:13;8.80;;;5.68;;
37297;SDS011;30517;51.932;4.278;2023-05-10T03:42:54;10.77;;;6.28;;
37297;SDS011;30517;51.932;4.278;2023-05-10T03:45:35;10.30;;;6.38;;
37297;SDS011;30517;51.932;4.278;2023-05-10T03:48:16;8.90;;;5.13;;
37297;SDS011;30517;51.932;4.278;2023-05-10T03:50:57;9.30;;;5.97;;
37297;SDS011;30517;51.932;4.278;2023-05-10T03:53:38;8.45;;;5.68;;
37297;SDS011;30517;51.932;4.278;2023-05-10T03:56:18;9.45;;;6.18;;
37297;SDS011;30517;51.932;4.278;2023-05-10T03:59:00;9.88;;;6.03;;
37297;SDS011;30517;51.932;4.278;2023-05-10T04:01:41;9.63;;;5.70;;
37297;SDS011;30517;51.932;4.278;2023-05-10T04:04:22;10.13;;;6.28;;
37297;SDS011;30517;51.932;4.278;2023-05-10T04:07:08;9.35;;;5.97;;
37297;SDS011;30517;51.932;4.278;2023-05-10T04:09:50;9.98;;;6.15;;
37297;SDS011;30517;51.932;4.278;2023-05-10T04:12:31;9.65;;;6.60;;
37297;SDS011;30517;51.932;4.278;2023-05-10T04:15:11;10.27;;;6.40;;
37297;SDS011;30517;51.932;4.278;2023-05-10T04:17:52;10.45;;;6.72;;
37297;SDS011;30517;51.932;4.278;2023-05-10T04:20:33;9.05;;;6.30;;
37297;SDS011;30517;51.932;4.278;2023-05-10T04:23:14;9.25;;;6.28;;
37297;SDS011;30517;51.932;4.278;2023-05-10T04:26:00;9.55;;;6.55;;
37297;SDS011;30517;51.932;4.278;2023-05-10T04:28:41;10.30;;;6.63;;
37297;SDS011;30517;51.932;4.278;2023-05-10T04:31:22;12.88;;;6.88;;
37297;SDS011;30517;51.932;4.278;2023-05-10T04:34:03;10.30;;;6.38;;
37297;SDS011;30517;51.932;4.278;2023-05-10T04:36:44;9.30;;;6.13;;
37297;SDS011;30517;51.932;4.278;2023-05-10T04:39:24;10.27;;;6.80;;
37297;SDS011;30517;51.932;4.278;2023-05-10T04:42:05;8.73;;;5.82;;
37297;SDS011;30517;51.932;4.278;2023-05-10T04:44:47;9.20;;;5.80;;
37297;SDS011;30517;51.932;4.278;2023-05-10T04:47:27;10.60;;;6.05;;
37297;SDS011;30517;51.932;4.278;2023-05-10T04:50:08;10.18;;;5.72;;
37297;SDS011;30517;51.932;4.278;2023-05-10T04:52:49;10.63;;;6.75;;
37297;SDS011;30517;51.932;4.278;2023-05-10T04:55:30;9.32;;;5.55;;
37297;SDS011;30517;51.932;4.278;2023-05-10T04:58:11;9.50;;;6.18;;
37297;SDS011;30517;51.932;4.278;2023-05-10T05:00:53;9.15;;;5.75;;
37297;SDS011;30517;51.932;4.278;2023-05-10T05:03:33;10.65;;;7.05;;
37297;SDS011;30517;51.932;4.278;2023-05-10T05:06:14;10.20;;;6.32;;
37297;SDS011;30517;51.932;4.278;2023-05-10T05:10:23;36.33;;;9.18;;
37297;SDS011;30517;51.932;4.278;2023-05-10T05:13:04;17.38;;;8.63;;
37297;SDS011;30517;51.932;4.278;2023-05-10T05:15:45;16.15;;;8.20;;
37297;SDS011;30517;51.932;4.278;2023-05-10T05:18:26;17.27;;;8.35;;
37297;SDS011;30517;51.932;4.278;2023-05-10T05:21:13;18.35;;;8.15;;
37297;SDS011;30517;51.932;4.278;2023-05-10T05:23:57;18.83;;;7.55;;
37297;SDS011;30517;51.932;4.278;2023-05-10T05:26:38;15.05;;;7.40;;
37297;SDS011;30517;51.932;4.278;2023-05-10T05:29:19;13.75;;;6.95;;
37297;SDS011;30517;51.932;4.278;2023-05-10T05:32:00;11.32;;;7.25;;
37297;SDS011;30517;51.932;4.278;2023-05-10T05:34:40;18.88;;;8.13;;
37297;SDS011;30517;51.932;4.278;2023-05-10T05:37:21;14.48;;;6.93;;
37297;SDS011;30517;51.932;4.278;2023-05-10T05:40:02;11.95;;;6.80;;
37297;SDS011;30517;51.932;4.278;2023-05-10T05:42:44;15.23;;;6.80;;
37297;SDS011;30517;51.932;4.278;2023-05-10T05:45:24;11.23;;;6.88;;
37297;SDS011;30517;51.932;4.278;2023-05-10T05:48:05;12.68;;;7.03;;
37297;SDS011;30517;51.932;4.278;2023-05-10T05:50:46;13.18;;;7.50;;
37297;SDS011;30517;51.932;4.278;2023-05-10T05:53:27;13.00;;;6.25;;
37297;SDS011;30517;51.932;4.278;2023-05-10T05:56:07;13.27;;;6.82;;
37297;SDS011;30517;51.932;4.278;2023-05-10T05:58:51;10.38;;;6.38;;
37297;SDS011;30517;51.932;4.278;2023-05-10T06:01:32;15.05;;;6.55;;
37297;SDS011;30517;51.932;4.278;2023-05-10T06:04:12;12.25;;;6.57;;
37297;SDS011;30517;51.932;4.278;2023-05-10T06:06:53;11.73;;;5.50;;
37297;SDS011;30517;51.932;4.278;2023-05-10T06:09:34;10.80;;;5.80;;
37297;SDS011;30517;51.932;4.278;2023-05-10T06:12:15;11.30;;;5.20;;
37297;SDS011;30517;51.932;4.278;2023-05-10T06:14:56;13.48;;;6.70;;
37297;SDS011;30517;51.932;4.278;2023-05-10T06:17:37;13.25;;;5.57;;
37297;SDS011;30517;51.932;4.278;2023-05-10T06:20:18;11.73;;;5.60;;
37297;SDS011;30517;51.932;4.278;2023-05-10T06:22:59;13.45;;;5.97;;
37297;SDS011;30517;51.932;4.278;2023-05-10T06:25:40;10.57;;;5.78;;
37297;SDS011;30517;51.932;4.278;2023-05-10T06:28:20;13.48;;;5.60;;
37297;SDS011;30517;51.932;4.278;2023-05-10T06:31:04;11.05;;;5.38;;
37297;SDS011;30517;51.932;4.278;2023-05-10T06:33:46;8.60;;;5.43;;
37297;SDS011;30517;51.932;4.278;2023-05-10T06:36:27;8.32;;;5.15;;
37297;SDS011;30517;51.932;4.278;2023-05-10T06:39:08;7.90;;;5.03;;
37297;SDS011;30517;51.932;4.278;2023-05-10T06:41:48;9.82;;;4.80;;
37297;SDS011;30517;51.932;4.278;2023-05-10T06:44:29;7.30;;;4.80;;
37297;SDS011;30517;51.932;4.278;2023-05-10T06:47:10;9.70;;;4.95;;
37297;SDS011;30517;51.932;4.278;2023-05-10T06:49:51;9.50;;;4.50;;
37297;SDS011;30517;51.932;4.278;2023-05-10T06:52:32;10.73;;;5.45;;
37297;SDS011;30517;51.932;4.278;2023-05-10T06:55:12;7.60;;;4.53;;
37297;SDS011;30517;51.932;4.278;2023-05-10T06:57:53;7.70;;;4.82;;
37297;SDS011;30517;51.932;4.278;2023-05-10T07:00:34;8.57;;;4.95;;
37297;SDS011;30517;51.932;4.278;2023-05-10T07:03:19;7.07;;;4.22;;
37297;SDS011;30517;51.932;4.278;2023-05-10T07:06:00;8.02;;;4.45;;
37297;SDS011;30517;51.932;4.278;2023-05-10T07:08:43;7.18;;;4.38;;
37297;SDS011;30517;51.932;4.278;2023-05-10T07:11:24;7.60;;;4.53;;
37297;SDS011;30517;51.932;4.278;2023-05-10T07:14:04;10.10;;;4.95;;
37297;SDS011;30517;51.932;4.278;2023-05-10T07:16:45;9.50;;;4.60;;
37297;SDS011;30517;51.932;4.278;2023-05-10T07:19:27;8.27;;;5.43;;
37297;SDS011;30517;51.932;4.278;2023-05-10T07:22:09;7.82;;;4.65;;
37297;SDS011;30517;51.932;4.278;2023-05-10T07:24:50;8.55;;;4.50;;
37297;SDS011;30517;51.932;4.278;2023-05-10T07:27:30;8.30;;;4.82;;
37297;SDS011;30517;51.932;4.278;2023-05-10T07:30:12;7.53;;;4.30;;
37297;SDS011;30517;51.932;4.278;2023-05-10T07:32:53;9.77;;;4.75;;
37297;SDS011;30517;51.932;4.278;2023-05-10T07:35:34;8.23;;;4.93;;
37297;SDS011;30517;51.932;4.278;2023-05-10T07:38:16;8.43;;;4.20;;
37297;SDS011;30517;51.932;4.278;2023-05-10T07:40:57;7.28;;;4.15;;
37297;SDS011;30517;51.932;4.278;2023-05-10T07:43:38;6.32;;;3.83;;
37297;SDS011;30517;51.932;4.278;2023-05-10T07:46:19;6.97;;;4.32;;
37297;SDS011;30517;51.932;4.278;2023-05-10T07:49:00;7.28;;;4.10;;
37297;SDS011;30517;51.932;4.278;2023-05-10T07:51:41;7.30;;;4.13;;
37297;SDS011;30517;51.932;4.278;2023-05-10T07:54:24;8.37;;;4.27;;
37297;SDS011;30517;51.932;4.278;2023-05-10T07:57:05;6.57;;;4.32;;
37297;SDS011;30517;51.932;4.278;2023-05-10T07:59:46;6.53;;;4.03;;
37297;SDS011;30517;51.932;4.278;2023-05-10T08:02:27;6.88;;;4.32;;
37297;SDS011;30517;51.932;4.278;2023-05-10T08:05:08;6.63;;;4.32;;
37297;SDS011;30517;51.932;4.278;2023-05-10T08:07:49;6.60;;;4.15;;
37297;SDS011;30517;51.932;4.278;2023-05-10T08:10:30;7.68;;;4.68;;
37297;SDS011;30517;51.932;4.278;2023-05-10T08:13:11;5.82;;;4.00;;
37297;SDS011;30517;51.932;4.278;2023-05-10T08:15:52;6.47;;;3.80;;
37297;SDS011;30517;51.932;4.278;2023-05-10T08:18:33;6.07;;;3.70;;
37297;SDS011;30517;51.932;4.278;2023-05-10T08:21:14;5.60;;;3.50;;
37297;SDS011;30517;51.932;4.278;2023-05-10T08:23:55;7.35;;;3.97;;
37297;SDS011;30517;51.932;4.278;2023-05-10T08:26:36;8.43;;;3.88;;
37297;SDS011;30517;51.932;4.278;2023-05-10T08:29:17;6.55;;;3.50;;
37297;SDS011;30517;51.932;4.278;2023-05-10T08:31:57;6.03;;;3.63;;
37297;SDS011;30517;51.932;4.278;2023-05-10T08:34:38;7.28;;;3.88;;
37297;SDS011;30517;51.932;4.278;2023-05-10T08:37:19;5.72;;;3.45;;
37297;SDS011;30517;51.932;4.278;2023-05-10T08:40:00;5.53;;;3.42;;
37297;SDS011;30517;51.932;4.278;2023-05-10T08:42:43;6.65;;;4.03;;
37297;SDS011;30517;51.932;4.278;2023-05-10T08:45:32;5.68;;;3.38;;
37297;SDS011;30517;51.932;4.278;2023-05-10T08:48:17;6.03;;;3.47;;
37297;SDS011;30517;51.932;4.278;2023-05-10T08:50:58;6.40;;;3.58;;
37297;SDS011;30517;51.932;4.278;2023-05-10T08:53:41;6.40;;;3.85;;
37297;SDS011;30517;51.932;4.278;2023-05-10T08:56:23;5.75;;;3.30;;
37297;SDS011;30517;51.932;4.278;2023-05-10T08:59:04;6.57;;;3.95;;
37297;SDS011;30517;51.932;4.278;2023-05-10T09:01:45;8.07;;;3.53;;
37297;SDS011;30517;51.932;4.278;2023-05-10T09:04:29;7.22;;;4.05;;
37297;SDS011;30517;51.932;4.278;2023-05-10T09:07:11;5.65;;;3.28;;
37297;SDS011;30517;51.932;4.278;2023-05-10T09:09:52;6.03;;;4.22;;
37297;SDS011;30517;51.932;4.278;2023-05-10T09:12:35;5.60;;;3.83;;
37297;SDS011;30517;51.932;4.278;2023-05-10T09:15:16;6.00;;;3.80;;
37297;SDS011;30517;51.932;4.278;2023-05-10T09:17:59;6.30;;;4.00;;
37297;SDS011;30517;51.932;4.278;2023-05-10T09:20:45;7.82;;;3.92;;
37297;SDS011;30517;51.932;4.278;2023-05-10T09:23:25;5.22;;;3.25;;
37297;SDS011;30517;51.932;4.278;2023-05-10T09:26:15;6.65;;;4.18;;
37297;SDS011;30517;51.932;4.278;2023-05-10T09:28:57;6.63;;;4.28;;
37297;SDS011;30517;51.932;4.278;2023-05-10T09:31:45;6.43;;;3.45;;
37297;SDS011;30517;51.932;4.278;2023-05-10T09:34:34;6.60;;;3.97;;
37297;SDS011;30517;51.932;4.278;2023-05-10T09:37:19;7.05;;;3.83;;
37297;SDS011;30517;51.932;4.278;2023-05-10T09:40:20;6.13;;;3.47;;
37297;SDS011;30517;51.932;4.278;2023-05-10T09:43:08;7.25;;;4.20;;
37297;SDS011;30517;51.932;4.278;2023-05-10T09:45:50;6.53;;;3.72;;
37297;SDS011;30517;51.932;4.278;2023-05-10T09:48:31;6.82;;;3.40;;
37297;SDS011;30517;51.932;4.278;2023-05-10T09:51:19;6.55;;;3.72;;
37297;SDS011;30517;51.932;4.278;2023-05-10T09:54:10;6.43;;;3.40;;
37297;SDS011;30517;51.932;4.278;2023-05-10T09:56:52;6.22;;;3.88;;
37297;SDS011;30517;51.932;4.278;2023-05-10T09:59:33;5.78;;;3.63;;
37297;SDS011;30517;51.932;4.278;2023-05-10T10:02:15;5.47;;;3.25;;
37297;SDS011;30517;51.932;4.278;2023-05-10T10:04:56;6.28;;;4.15;;
37297;SDS011;30517;51.932;4.278;2023-05-10T10:07:37;6.10;;;3.72;;
37297;SDS011;30517;51.932;4.278;2023-05-10T10:10:18;5.10;;;2.97;;
37297;SDS011;30517;51.932;4.278;2023-05-10T10:12:59;5.88;;;3.33;;
37297;SDS011;30517;51.932;4.278;2023-05-10T10:15:40;5.50;;;3.20;;
37297;SDS011;30517;51.932;4.278;2023-05-10T10:18:23;6.80;;;3.58;;
37297;SDS011;30517;51.932;4.278;2023-05-10T10:21:07;6.25;;;3.28;;
37297;SDS011;30517;51.932;4.278;2023-05-10T10:23:48;5.93;;;3.72;;
37297;SDS011;30517;51.932;4.278;2023-05-10T10:26:30;6.40;;;3.83;;
37297;SDS011;30517;51.932;4.278;2023-05-10T10:32:55;5.88;;;3.33;;
37297;SDS011;30517;51.932;4.278;2023-05-10T10:35:47;7.28;;;3.67;;
37297;SDS011;30517;51.932;4.278;2023-05-10T10:50:02;6.22;;;3.55;;
37297;SDS011;30517;51.932;4.278;2023-05-10T10:52:45;6.70;;;4.07;;
37297;SDS011;30517;51.932;4.278;2023-05-10T10:55:29;7.45;;;3.42;;
37297;SDS011;30517;51.932;4.278;2023-05-10T10:58:10;6.18;;;3.47;;
37297;SDS011;30517;51.932;4.278;2023-05-10T11:00:51;6.90;;;3.05;;
37297;SDS011;30517;51.932;4.278;2023-05-10T11:06:38;5.47;;;2.90;;
37297;SDS011;30517;51.932;4.278;2023-05-10T11:09:20;6.25;;;3.10;;
37297;SDS011;30517;51.932;4.278;2023-05-10T11:12:07;5.63;;;3.30;;
37297;SDS011;30517;51.932;4.278;2023-05-10T11:14:49;6.40;;;3.40;;
37297;SDS011;30517;51.932;4.278;2023-05-10T11:17:31;6.43;;;3.03;;
37297;SDS011;30517;51.932;4.278;2023-05-10T11:20:13;5.07;;;2.80;;
37297;SDS011;30517;51.932;4.278;2023-05-10T11:22:55;6.35;;;3.10;;
37297;SDS011;30517;51.932;4.278;2023-05-10T11:25:39;5.43;;;3.08;;
37297;SDS011;30517;51.932;4.278;2023-05-10T11:28:22;4.75;;;2.70;;
37297;SDS011;30517;51.932;4.278;2023-05-10T11:31:03;6.20;;;2.97;;
37297;SDS011;30517;51.932;4.278;2023-05-10T11:33:45;6.45;;;3.50;;
37297;SDS011;30517;51.932;4.278;2023-05-10T11:36:32;6.60;;;3.78;;
37297;SDS011;30517;51.932;4.278;2023-05-10T11:39:14;5.32;;;2.88;;
37297;SDS011;30517;51.932;4.278;2023-05-10T11:41:55;5.65;;;3.10;;
37297;SDS011;30517;51.932;4.278;2023-05-10T11:44:37;7.28;;;3.00;;
37297;SDS011;30517;51.932;4.278;2023-05-10T11:47:21;5.10;;;3.05;;
37297;SDS011;30517;51.932;4.278;2023-05-10T11:50:03;5.40;;;3.10;;
37297;SDS011;30517;51.932;4.278;2023-05-10T11:52:44;5.43;;;3.33;;
37297;SDS011;30517;51.932;4.278;2023-05-10T11:55:25;6.25;;;3.47;;
37297;SDS011;30517;51.932;4.278;2023-05-10T11:58:06;5.22;;;3.03;;
37297;SDS011;30517;51.932;4.278;2023-05-10T12:00:46;5.18;;;2.90;;
37297;SDS011;30517;51.932;4.278;2023-05-10T12:03:27;5.60;;;3.13;;
37297;SDS011;30517;51.932;4.278;2023-05-10T12:06:09;6.00;;;3.38;;
37297;SDS011;30517;51.932;4.278;2023-05-10T12:08:50;5.72;;;3.05;;
37297;SDS011;30517;51.932;4.278;2023-05-10T12:11:36;7.40;;;3.67;;
37297;SDS011;30517;51.932;4.278;2023-05-10T12:14:20;6.70;;;3.05;;
37297;SDS011;30517;51.932;4.278;2023-05-10T12:17:02;6.05;;;3.35;;
37297;SDS011;30517;51.932;4.278;2023-05-10T12:19:43;5.38;;;3.00;;
37297;SDS011;30517;51.932;4.278;2023-05-10T12:22:24;9.73;;;3.70;;
37297;SDS011;30517;51.932;4.278;2023-05-10T12:25:05;6.53;;;3.05;;
37297;SDS011;30517;51.932;4.278;2023-05-10T12:27:56;5.30;;;2.95;;
37297;SDS011;30517;51.932;4.278;2023-05-10T12:30:38;5.68;;;2.80;;
37297;SDS011;30517;51.932;4.278;2023-05-10T12:33:19;7.28;;;2.97;;
37297;SDS011;30517;51.932;4.278;2023-05-10T12:36:00;6.05;;;3.15;;
37297;SDS011;30517;51.932;4.278;2023-05-10T12:38:41;5.85;;;2.88;;
37297;SDS011;30517;51.932;4.278;2023-05-10T12:41:23;7.57;;;3.40;;
37297;SDS011;30517;51.932;4.278;2023-05-10T12:44:04;5.95;;;3.10;;
37297;SDS011;30517;51.932;4.278;2023-05-10T12:46:45;5.57;;;2.72;;
37297;SDS011;30517;51.932;4.278;2023-05-10T12:49:26;7.30;;;3.38;;
37297;SDS011;30517;51.932;4.278;2023-05-10T12:52:07;5.55;;;2.85;;
37297;SDS011;30517;51.932;4.278;2023-05-10T12:54:48;6.15;;;3.20;;
37297;SDS011;30517;51.932;4.278;2023-05-10T12:57:29;6.72;;;3.10;;
37297;SDS011;30517;51.932;4.278;2023-05-10T13:00:10;6.30;;;3.22;;
37297;SDS011;30517;51.932;4.278;2023-05-10T13:02:51;5.35;;;2.78;;
37297;SDS011;30517;51.932;4.278;2023-05-10T13:05:33;6.50;;;3.35;;
37297;SDS011;30517;51.932;4.278;2023-05-10T13:08:14;8.65;;;3.30;;
37297;SDS011;30517;51.932;4.278;2023-05-10T13:10:55;4.97;;;2.55;;
37297;SDS011;30517;51.932;4.278;2023-05-10T13:13:36;5.40;;;2.70;;
37297;SDS011;30517;51.932;4.278;2023-05-10T13:16:16;6.55;;;2.90;;
37297;SDS011;30517;51.932;4.278;2023-05-10T13:18:57;5.05;;;2.63;;
37297;SDS011;30517;51.932;4.278;2023-05-10T13:21:38;6.60;;;2.85;;
37297;SDS011;30517;51.932;4.278;2023-05-10T13:24:20;6.78;;;3.00;;
37297;SDS011;30517;51.932;4.278;2023-05-10T13:27:01;5.57;;;2.80;;
37297;SDS011;30517;51.932;4.278;2023-05-10T13:29:42;5.47;;;2.70;;
37297;SDS011;30517;51.932;4.278;2023-05-10T13:32:23;6.25;;;2.90;;
37297;SDS011;30517;51.932;4.278;2023-05-10T13:35:04;5.60;;;2.85;;
37297;SDS011;30517;51.932;4.278;2023-05-10T13:37:45;5.50;;;2.92;;
37297;SDS011;30517;51.932;4.278;2023-05-10T13:40:26;6.28;;;2.80;;
37297;SDS011;30517;51.932;4.278;2023-05-10T13:43:08;7.43;;;3.05;;
37297;SDS011;30517;51.932;4.278;2023-05-10T13:45:48;4.85;;;2.40;;
37297;SDS011;30517;51.932;4.278;2023-05-10T13:48:29;6.70;;;2.92;;
37297;SDS011;30517;51.932;4.278;2023-05-10T13:51:10;6.93;;;2.92;;
37297;SDS011;30517;51.932;4.278;2023-05-10T13:53:51;6.63;;;2.88;;
37297;SDS011;30517;51.932;4.278;2023-05-10T13:56:32;5.68;;;3.17;;
37297;SDS011;30517;51.932;4.278;2023-05-10T13:59:13;5.35;;;3.13;;
37297;SDS011;30517;51.932;4.278;2023-05-10T14:01:54;5.90;;;3.13;;
37297;SDS011;30517;51.932;4.278;2023-05-10T14:04:35;5.40;;;3.10;;
37297;SDS011;30517;51.932;4.278;2023-05-10T14:07:15;5.60;;;3.33;;
37297;SDS011;30517;51.932;4.278;2023-05-10T14:09:56;7.13;;;3.13;;
37297;SDS011;30517;51.932;4.278;2023-05-10T14:12:37;7.20;;;3.55;;
37297;SDS011;30517;51.932;4.278;2023-05-10T14:15:18;7.13;;;3.42;;
37297;SDS011;30517;51.932;4.278;2023-05-10T14:17:58;6.35;;;3.58;;
37297;SDS011;30517;51.932;4.278;2023-05-10T14:20:39;6.47;;;3.88;;
37297;SDS011;30517;51.932;4.278;2023-05-10T14:23:21;7.25;;;3.47;;
37297;SDS011;30517;51.932;4.278;2023-05-10T14:26:06;7.05;;;3.80;;
37297;SDS011;30517;51.932;4.278;2023-05-10T14:28:47;7.05;;;4.32;;
37297;SDS011;30517;51.932;4.278;2023-05-10T14:31:28;6.57;;;3.40;;
37297;SDS011;30517;51.932;4.278;2023-05-10T14:34:10;6.68;;;4.07;;
37297;SDS011;30517;51.932;4.278;2023-05-10T14:36:50;6.47;;;3.67;;
37297;SDS011;30517;51.932;4.278;2023-05-10T14:39:31;6.68;;;3.70;;
37297;SDS011;30517;51.932;4.278;2023-05-10T14:42:13;6.97;;;4.07;;
37297;SDS011;30517;51.932;4.278;2023-05-10T14:44:53;6.82;;;3.40;;
37297;SDS011;30517;51.932;4.278;2023-05-10T14:47:34;7.72;;;4.25;;
37297;SDS011;30517;51.932;4.278;2023-05-10T14:50:15;6.45;;;4.00;;
37297;SDS011;30517;51.932;4.278;2023-05-10T14:52:57;6.15;;;4.03;;
37297;SDS011;30517;51.932;4.278;2023-05-10T14:55:39;7.45;;;4.43;;
37297;SDS011;30517;51.932;4.278;2023-05-10T14:58:20;6.28;;;3.60;;
37297;SDS011;30517;51.932;4.278;2023-05-10T15:01:00;6.80;;;4.07;;
37297;SDS011;30517;51.932;4.278;2023-05-10T15:03:41;7.60;;;3.95;;
37297;SDS011;30517;51.932;4.278;2023-05-10T15:06:30;8.35;;;4.20;;
37297;SDS011;30517;51.932;4.278;2023-05-10T15:09:11;8.00;;;4.30;;
37297;SDS011;30517;51.932;4.278;2023-05-10T15:11:53;7.20;;;4.70;;
37297;SDS011;30517;51.932;4.278;2023-05-10T15:14:34;7.18;;;4.38;;
37297;SDS011;30517;51.932;4.278;2023-05-10T15:17:16;6.32;;;3.70;;
37297;SDS011;30517;51.932;4.278;2023-05-10T15:19:57;7.07;;;4.05;;
37297;SDS011;30517;51.932;4.278;2023-05-10T15:22:37;7.25;;;3.70;;
37297;SDS011;30517;51.932;4.278;2023-05-10T15:25:18;5.90;;;3.97;;
37297;SDS011;30517;51.932;4.278;2023-05-10T15:28:00;7.13;;;4.50;;
37297;SDS011;30517;51.932;4.278;2023-05-10T15:30:42;6.90;;;3.83;;
37297;SDS011;30517;51.932;4.278;2023-05-10T15:33:24;6.97;;;4.28;;
37297;SDS011;30517;51.932;4.278;2023-05-10T15:36:04;5.47;;;3.25;;
37297;SDS011;30517;51.932;4.278;2023-05-10T15:38:46;6.65;;;3.67;;
37297;SDS011;30517;51.932;4.278;2023-05-10T15:41:27;7.15;;;3.60;;
37297;SDS011;30517;51.932;4.278;2023-05-10T15:44:08;5.60;;;3.67;;
37297;SDS011;30517;51.932;4.278;2023-05-10T15:46:49;7.47;;;3.95;;
37297;SDS011;30517;51.932;4.278;2023-05-10T15:49:30;5.90;;;3.35;;
37297;SDS011;30517;51.932;4.278;2023-05-10T15:52:11;6.05;;;3.03;;
37297;SDS011;30517;51.932;4.278;2023-05-10T15:54:55;5.95;;;3.72;;
37297;SDS011;30517;51.932;4.278;2023-05-10T15:57:36;6.03;;;3.55;;
37297;SDS011;30517;51.932;4.278;2023-05-10T16:00:16;6.38;;;3.50;;
37297;SDS011;30517;51.932;4.278;2023-05-10T16:02:58;6.97;;;4.00;;
37297;SDS011;30517;51.932;4.278;2023-05-10T16:05:38;5.38;;;3.42;;
37297;SDS011;30517;51.932;4.278;2023-05-10T16:08:19;5.55;;;3.60;;
37297;SDS011;30517;51.932;4.278;2023-05-10T16:11:00;7.07;;;4.00;;
37297;SDS011;30517;51.932;4.278;2023-05-10T16:13:41;6.38;;;3.60;;
37297;SDS011;30517;51.932;4.278;2023-05-10T16:16:22;4.72;;;2.83;;
37297;SDS011;30517;51.932;4.278;2023-05-10T16:19:03;5.32;;;3.28;;
37297;SDS011;30517;51.932;4.278;2023-05-10T16:21:44;5.80;;;3.22;;
37297;SDS011;30517;51.932;4.278;2023-05-10T16:24:26;6.93;;;3.83;;
37297;SDS011;30517;51.932;4.278;2023-05-10T16:27:07;5.97;;;3.88;;
37297;SDS011;30517;51.932;4.278;2023-05-10T16:29:48;5.93;;;3.55;;
37297;SDS011;30517;51.932;4.278;2023-05-10T16:32:29;7.05;;;3.67;;
37297;SDS011;30517;51.932;4.278;2023-05-10T16:35:10;6.72;;;3.65;;
37297;SDS011;30517;51.932;4.278;2023-05-10T16:37:51;8.27;;;4.85;;
37297;SDS011;30517;51.932;4.278;2023-05-10T16:40:32;13.90;;;4.93;;
37297;SDS011;30517;51.932;4.278;2023-05-10T16:43:13;8.77;;;4.35;;
37297;SDS011;30517;51.932;4.278;2023-05-10T16:45:54;7.75;;;4.55;;
37297;SDS011;30517;51.932;4.278;2023-05-10T16:48:35;13.48;;;4.63;;
37297;SDS011;30517;51.932;4.278;2023-05-10T16:51:15;9.90;;;4.40;;